5KM - LES FOULEES LAMENTINOISES 2020 le 26/01/2020

Recherche par Dossard : par Nom : par Club :

Place Dossard Nom Prenom Cat. Pl. Cat. Temps Club Sexe
1 547 JEAN-ELIE GEORGES ES 1 00:18:25 MAIRIE SPORTIVE M
2 638 CHARTON JULIEN M0 1 00:18:34 CLUB PELEEN M
3 670 FOURMONT BENOIT M2 1 00:19:06 MAIRIE SPORTIVE M
4 645 JEANNOT JEAN ETIENNE M4 1 00:19:41 M
5 619 LOUIS LISE LOIC SE 1 00:19:43 ASCO INTER ATLAS M
6 551 LINEL LAURENT SE 2 00:19:48 MAIRIE SPORTIVE M
7 579 BLACODON THIERRY M2 2 00:20:06 POLICE SPORTIVE M
8 581 RAGOT OLIVIER M0 2 00:20:10 POLICE SPORTIVE M
9 614 DILO YANN JU 1 00:20:15 ASCO INTER ATLAS M
10 628 MARCENY MERICK ES 2 00:20:19 GOLDEN LION ST-JOSEPH M
11 550 BOLOTTE FRANCOIS M0 3 00:20:21 MAIRIE SPORTIVE M
12 527 HO-CAN-SUNG OLIVIER M1 1 00:20:23 GOLDEN STAR M
13 523 FONTAINE LIONEL JU 2 00:20:37 ASSAUT SAINT-PIERRE M
14 540 DORMOY ANTHONY CA 1 00:20:41 JEUNESSE SPORTIVE FRANCISCAINE M
15 524 ZACHARIE CHARLES-DENIS M3 1 00:20:41 CLUB COLONIAL M
16 460 CORDEMY MATHIEU M1 2 00:21:16 M
17 594 MARIE JOSEPH DAVID M0 4 00:21:32 TIGER TEAM 972 M
18 520 BEAUSOLEIL PATRICE M1 3 00:21:41 ASCO INTER ATLAS M
19 553 EMELIE JEAN-CHARLES M5 1 00:21:46 MAIRIE SPORTIVE M
20 477 FLOBINUS HENRIUS M3 2 00:22:24 M
21 548 EMELIE ROSELINE M0 1 00:22:29 MAIRIE SPORTIVE F
22 483 LAURENT ASTRID M3 1 00:22:41 F
23 521 MOESTA YONA ES 3 00:22:47 ASCO INTER ATLAS M
24 605 FABRICIUS MATTHIAS M0 5 00:22:52 M
25 610 ROSE-ANTOINETTE GÉRALD M0 6 00:23:21 GOLDEN STAR ATHLETISME M
26 426 BONIFACE REMY M0 7 00:23:29 M
27 455 PAVADE JOCELYN M3 3 00:23:46 M
28 476 MARVEAUX ALFRED M4 2 00:23:49 M
29 512 SIDNEY JEAN-MARC M3 4 00:23:58 AM DES COUREURS DE FOND M
30 629 NELSON RODRIGUE M0 8 00:24:02 GOLDEN LION ST-JOSEPH M
31 461 BOUVILLE ELDRICK ES 4 00:24:06 M
32 508 CHAPIN DESIRE M6 1 00:24:10 AIGLON DU LAMENTIN M
33 602 JOSEPH JEAN-PHILIPPE M2 3 00:24:36 VAUCLIN ATHLÉTIQUE CLUB M
34 612 BOISSON GABRIELLE JU 1 00:24:59 ASCO INTER ATLAS F
35 615 MICHELIN LUDOVIC JU 3 00:25:51 AM DES COUREURS DE FOND M
36 441 VANITOU ERWAN MI 1 00:25:51 M
37 469 SALINIERE JEAN ROGER M2 4 00:26:10 M
38 589 SOLER JOCELYNE M3 2 00:26:20 TIGER TEAM 972 F
39 482 THOMASI FABRICE M3 5 00:26:32 M
40 452 CHEMIN CATTHALEN M0 2 00:26:33 F
41 538 BALTIDE ERIC M4 3 00:26:45 GROUPE M
42 552 CINNA MURIEL M3 3 00:26:46 MAIRIE SPORTIVE F
43 454 PRUVOST EWAN CA 2 00:27:05 M
44 401 CHAMLONG GIOVANNI SE 3 00:27:08 M
45 421 BEAUDOIN LOĎC SE 4 00:27:23 M
46 554 JARRIN VICTORIEN M8 1 00:27:27 OMASS M
47 431 DE ROGATIS FRANCOIS M6 2 00:27:31 M
48 479 MAS ALAIN M5 2 00:27:35 M
49 590 BRULU JEAN-MICHEL M3 6 00:27:37 TIGER TEAM 972 M
50 525 GIACOMETTI JACQUES M5 3 00:27:41 CLUB MANIKOU ORGANISATIONS M
51 580 LEBOUC MAEVA SE 1 00:27:52 POLICE SPORTIVE F
52 502 CHARLES DONATIEN FLORA M4 1 00:27:56 F
53 485 THOMASI JOEL M4 4 00:28:03 M
54 449 BAZABAS JEAN-HUGUES M3 7 00:28:32 M
55 596 RINTO BEATRICE M1 1 00:28:37 TIGER TEAM 972 F
56 604 VALLIÉ RODRIGUE M0 9 00:28:40 M
57 530 LECHERTIER JACQUES-MICHEL M1 4 00:28:44 GOLDEN STAR M
58 585 FONTAINE FRANTZ M4 5 00:28:49 TCHIMBE RAID M
59 405 MARYSE LOWENSKI MARYSE M4 2 00:29:09 F
60 522 RUBAN JEAN M6 3 00:29:20 ASPTT MARTINIQUE M
61 667 FILET FRANTZ M3 8 00:29:23 AMCF M
62 446 HENNEQUIN TITAUAN MI 2 00:29:37 M
63 500 MIREDIN RONNY M3 9 00:29:37 M
64 506 GOVINDOORAZOO CHANTAL M4 3 00:29:42 F
65 473 THOMASI CORINE M2 1 00:29:49 F
66 470 LOSTAU GILLES M4 6 00:29:49 M
67 593 LINERE MARIE-YVONNE M2 2 00:29:50 TIGER TEAM 972 F
68 620 PRETESEILLE BRICE M0 10 00:30:11 M
69 588 JOSEPH ENDA M1 2 00:30:15 TIGER TEAM 972 F
70 534 LEDUFF MYRIAM M2 3 00:30:18 GOLDEN STAR F
71 625 DELIN JEAN-CLAUDE M6 4 00:30:21 M
72 613 GRANGENOIS ROGER M6 5 00:30:30 ASCO INTER ATLAS M
73 475 RIVOT MICHELE M0 3 00:30:31 F
74 669 SIDOINE STEPHANIE M0 4 00:30:32 F
75 632 JUMARIE EVELYNE M3 4 00:30:38 F
76 490 PONTAT YANNICK M1 3 00:30:44 F
77 433 PRIVAT MICHEL M6 6 00:30:56 M
78 403 LAMORANDIERE CLÉMENT M2 5 00:31:00 M
79 544 RENE -CORAIL RITA M2 4 00:31:00 LES BAROUDEURS MARTINIQUE F
80 647 LAGRANCOURT CARLA M2 5 00:31:03 VAC F
81 462 MINOTON ANTOINE SE 5 00:31:05 M
82 582 SOLBIAC JEAN M5 4 00:31:09 POLICE SPORTIVE M
83 609 SIBERAN AUDE JU 2 00:31:12 TIGER TEAM 972 F
84 606 VALIDE VALIDE M3 5 00:31:17 TIGER TEAM 972 F
85 526 FELICIE FLAVIEN M5 5 00:31:23 ECLIPSE M
86 597 URITY CLARISSE M3 6 00:31:27 TIGER TEAM 972 F
87 423 LEGLISE PIERRE-YVES M2 6 00:31:28 M
88 442 VANITOU PATRICK M3 10 00:31:29 M
89 587 VEGA MAGALIE M3 7 00:31:39 TI-CHIMEN F
90 412 FRANCOIS-LUBIN NICOLE M4 4 00:31:42 F
91 630 HILDERAL KETTY SE 2 00:31:49 GOLDEN LION ST-JOSEPH F
92 413 CHAIN CHRISTOPHE M4 7 00:31:53 M
93 641 PETIOT MIREILLE M4 5 00:31:54 F
94 668 SAINT PIERRE GENEVIEVRE M0 5 00:31:58 GOLDEN STAR F
95 471 LAUREAT KELIA CA 1 00:32:00 F
96 586 WOMBA CECILE M4 6 00:32:06 TEAM AKTIV GIRLS F
97 608 GOUAIT ELODIE SE 3 00:32:25 TIGER TEAM 972 F
98 503 ASTAMBIDE EDDY M2 7 00:32:26 M
99 639 ROSA-ARSENE GILLES M4 8 00:32:30 GOLDEN STAR M
100 634 MACARIE MIGUEL M5 6 00:32:43 M
101 492 CRISPIN FRÉDÉRIC SE 6 00:32:46 M
102 644 EDRAGAS CATHERINE M3 8 00:32:46 F
103 406 SIDOINE SYLVIA M5 1 00:32:47 F
104 623 TATLOT GREGORY M0 11 00:32:54 M
105 414 MARTINON SANDRA M2 6 00:32:58 F
106 501 BILAS-COPPET KATLEEN M1 4 00:33:09 F
107 536 PAIN COLETTE M5 2 00:33:09 GOLDEN STAR F
108 618 LABAMAR ROSELYNE M3 9 00:33:12 F
109 653 LANDRY LUCETTE ANDREE M4 7 00:33:15 TCHIMBE RAID F
110 504 FARDIN JOEL M1 5 00:33:23 M
111 532 ZALI ESTELLE M1 5 00:33:27 GOLDEN STAR F
112 533 TOUSSAINT NADIA SE 4 00:33:38 GOLDEN STAR F
113 601 SIMBA WILL M4 9 00:33:48 US ROBERT M
114 528 MONTABORD PAOLA M2 7 00:33:48 GOLDEN STAR F
115 635 ZOU RENÉE-LAURE M4 8 00:33:49 KALANS BEACH CLUB (KBC) F
116 439 JACOB THIERRY M2 8 00:34:10 M
117 429 ROLIN VERONIQUE M3 10 00:34:25 F
118 555 PELOPONESE JULIETTE M6 1 00:34:26 OMASS F
119 545 CHATOT-HENRY CAROLE M4 9 00:34:28 MADININA BIKERS F
120 416 MARIE-LUCE NADINE M4 10 00:34:29 F
121 515 CHERUAU YVES M4 10 00:34:33 AS FONDETTES M
122 584 PHULPIN ELISABETH M1 6 00:34:42 RSMAM F
123 583 PHULPIN NICOLAS M1 6 00:34:42 RSMA M
124 529 ELISEE JOCELYNE M4 11 00:34:43 GOLDEN STAR F
125 513 FRESINO EVELYNE M4 12 00:34:54 AM DES COUREURS DE FOND F
126 611 JURIN LUC M6 7 00:35:12 M
127 451 SULTY SIMONE M4 13 00:35:18 F
128 511 BORIEL NICOLE M2 8 00:35:26 AIGLON DU LAMENTIN F
129 436 SAINT-ZEBY STELLA M0 6 00:35:46 F
130 616 LUCHEL PHILIPPE M5 7 00:35:47 REVEIL DE LA COTE CARAIBE M
131 465 DAUSSEUR LAGASSE NATHALIE M2 9 00:35:50 F
132 466 LAGASSE CHRISTOPHE M3 11 00:35:50 M
133 574 LONGCHAMPS SUZETTE M5 3 00:35:54 OMASS F
134 535 PAUL-JOSEPH SANDRINE M1 7 00:36:06 GOLDEN STAR F
135 514 LITAMPHA TEDDY M2 9 00:36:07 AM DES COUREURS DE FOND M
136 507 PERCIN NICOLE M4 14 00:36:08 AIGLON DU LAMENTIN F
137 425 COQUET CÉCILE M1 8 00:36:11 F
138 516 DELIN LYDIA M2 10 00:36:20 ASC ZENITH F
139 420 MERHET-FERNANDEZ CAMILLE SE 5 00:36:24 F
140 428 BAVARIN PATRICIA M4 15 00:36:28 F
141 633 YOKESSA MAĎMOUNA SE 6 00:36:31 F
142 656 THOMASSIN YANNIS M1 7 00:36:32 M
143 617 WAKIM KANELLE CA 2 00:36:37 F
144 478 RAPON JEAN-MANUEL M5 8 00:36:42 M
145 404 HAUTEVILLE LAURIANNE M4 16 00:36:43 F
146 557 DUZEROL ELIANE M6 2 00:36:44 OMASS F
147 440 JACOB NATACHA M2 11 00:36:48 F
148 493 TERMON COLETTE M4 17 00:36:49 F
149 592 LAMOTTE MARLENE M2 12 00:36:51 TIGER TEAM 972 F
150 595 PONSAR PALOMA SE 7 00:36:51 TIGER TEAM 972 F
151 499 ADELISE MICHAEL M1 8 00:36:56 M
152 607 THEODAT CHRISTELLE M0 7 00:36:58 TCHIMBE RAID F
153 419 SOUDIN ROSE M3 11 00:37:05 F
154 591 DACLINAT MARIE-CLAUDE M3 12 00:37:26 TIGER TEAM 972 F
155 409 COUR JOL GUY M5 9 00:37:29 M
156 418 DESERT YVON M4 11 00:37:40 M
157 509 REINE SANDRINE M2 13 00:37:45 AIGLON DU LAMENTIN F
158 456 CHALLAN BELVAL NELLY M0 8 00:37:45 F
159 489 DERAMPE PALIX FABIENNE M4 18 00:38:02 F
160 600 BRIAND MIREILLE M4 19 00:38:02 US ROBERT F
161 432 CLERY SYLVIE M1 9 00:38:12 F
162 434 KLAK MARILYNE M0 9 00:38:34 F
163 435 KLAK SYLVAIN M0 12 00:38:35 M
164 450 SULTY SYLVIE M4 20 00:38:40 F
165 598 MARTOT MARILYNE M4 21 00:38:46 US ROBERT F
166 569 MORETON ROMAINE M6 3 00:38:50 OMASS F
167 480 RIDARCH BEATRICE M1 10 00:38:59 F
168 457 SEMINOR MANUELLA M4 22 00:39:01 F
169 636 LAUZEA MICHEL M2 10 00:39:10 M
170 642 MARIE-LUCE JEAN-FRANÇOIS M3 12 00:39:12 M
171 622 MAURICE YANIS M3 13 00:39:16 F
172 603 PASTEL JESSICA PASTEL M0 10 00:39:32 F
173 427 CHARLES-SAINTE-CLAIRE CLAUDINE M4 23 00:39:35 F
174 437 DORMOY VIRGINIE M2 14 00:39:58 F
175 448 DUBRAY ANGE MICHELE M3 14 00:40:12 F
176 468 DIAS RIBEIRO FERNANDO M5 10 00:40:14 M
177 467 LOWENSKI NADINE M5 4 00:40:14 F
178 539 GUY CLARISSE M0 11 00:40:59 GUY F
179 484 JACOBY LUCIENNE M4 24 00:41:02 F
180 599 SIMBA VIVIANE M4 25 00:41:04 US ROBERT F
181 541 OLINY ODILE M2 15 00:41:05 LA CIGOGNE MARTINIQUE F
182 578 SAINTE ROSE MARIE SAINTE CLAIRETTE M4 26 00:41:16 OSONS DECOUVRIR F
183 572 LAMASINE VALERIE M0 12 00:41:19 OMASS F
184 561 CRUCHET RENEE M6 4 00:41:20 OMASS F
185 648 BAROUT BRUNO M5 11 00:41:22 M
186 565 TARAUD JOSIANE M7 1 00:41:44 OMASS F
187 486 TELCIDE NELLY DENISE M3 15 00:41:45 F
188 637 SEYMOUR VALERIE M3 16 00:41:54 F
189 415 FEMMELAT CHRISTINE M3 17 00:42:00 F
190 626 THALLY MARIE-MYRIAM M1 11 00:42:04 GOLDEN LION ST-JOSEPH F
191 577 DEFFIT JULIEN M9 1 00:42:07 OMASS M
192 549 VILLAGEOIS PATRICIA M4 27 00:42:14 MAIRIE SPORTIVE F
193 407 JUPITER KARINE M2 16 00:42:17 F
194 458 POULIN PASCALINE M0 13 00:42:47 F
195 430 SALINIERE-HO SANDRA M2 17 00:42:55 F
196 566 FARRAUDIERE CHRYSLAINE M6 5 00:44:02 OMASS F
197 487 BONHEUR AUDREY M1 12 00:44:02 F
198 646 DEFORT DANIELLE M4 28 00:44:19 F
199 295 MIDELTON ROSE-HELENE M6 6 00:44:21 MAIRIE SPORTIVE F
200 402 MARIE LAURENCE M4 29 00:44:26 F
201 563 PERMANGANT LILANE M8 1 00:44:46 OMASS F
202 568 SAINT-VAL LILIANE M7 2 00:44:47 OMASS F
203 627 MORIN MYRIAM M1 13 00:44:48 GOLDEN LION ST-JOSEPH F
204 474 THOMASI JOSIANE M7 3 00:44:52 F
205 570 MONTA HUGUETTE M6 7 00:45:13 OMASS F
206 463 BATIZA FRANCILE M0 14 00:46:02 F
207 494 JEAN LOUIS MURIEL M0 15 00:46:36 F
208 496 LAVILLE KARINE M1 14 00:46:36 F
209 556 CRAMER PAULETTE M7 4 00:46:41 OMASS F
210 562 BELLIARD Françoise M6 8 00:47:17 OMASS F
211 559 SYLVIUS JOCELYNE M7 5 00:47:42 OMASS F
212 453 ALINE PATRICK M5 12 00:47:44 M
213 537 LEVY ROSELYNE M4 30 00:47:48 GOLDEN STAR F
214 564 MARIGNAN SUZEL M5 5 00:47:48 OMASS F
215 576 SAMOT PAULE M9 1 00:47:50 OMASS F
216 410 MINATI MARIE M1 15 00:47:55 F
217 472 THOMASI CELIAS M1 16 00:47:57 F
218 411 BINET KATHLEEN SE 8 00:48:05 F
219 575 THELISE SUZANNE M6 9 00:48:07 OMASS F
220 505 NOEL MARTINIE M3 18 00:48:33 F
221 573 GUSTO EUGENIE MONIQUE M7 6 00:48:46 OMASS F
222 481 GUY CLAUDIA M0 16 00:48:46 F
223 671 DEPIESSE FREDERIC M3 13 00:49:07 M
224 643 GARNIER ELISABETH M8 2 00:49:35 F
225 464 DALBINOE MADELEINE M4 31 00:50:24 F
226 624 SAGE ASTRID M3 19 00:52:18 F
227 510 POMPUI PATRICIA M5 6 00:52:18 AIGLON DU LAMENTIN F
228 558 OLLIEN ANITE M6 10 00:53:18 OMASS F
229 567 DOYEN MARIE-CLAUDE M7 7 00:53:21 OMASS F
230 518 PRIOR FRANCINE M3 20 00:54:33 ASC ZENITH F
231 519 MATHURINA MICHAELLE M3 21 00:54:33 ASC ZENITH F
232 517 VINCENT-SULLY MARIE-ANGE M7 8 00:54:33 ASC ZENITH F
233 571 CAPRON GALIM SIMONE M7 9 00:54:59 OMASS F
234 459 WAKIM SOPHIE M1 17 01:05:03 F
235 649 BOCHAIN BEATRICE M3 22 01:05:08 GOLDEN STAR F
236 621 VOYER MONIQUE M5 7 01:05:08 F
237 531 LOUIS-MARIE-TÖLG CÉCILIA M3 23 01:05:08 GOLDEN STAR F